createdAt,value
2022-09-21T00:01:40.997Z,101968.81
2022-09-21T00:04:11.499Z,101971.50
2022-09-21T00:06:39.985Z,101967.34
2022-09-21T00:09:09.490Z,101967.53
2022-09-21T00:11:38.571Z,101968.47
2022-09-21T00:14:15.034Z,101964.97
2022-09-21T00:16:44.609Z,101972.78
2022-09-21T00:19:21.082Z,101972.78
2022-09-21T00:21:49.782Z,101979.81
2022-09-21T00:24:18.353Z,101974.63
2022-09-21T00:26:46.883Z,101972.03
2022-09-21T00:29:16.847Z,101977.22
2022-09-21T00:31:45.447Z,101973.69
2022-09-21T00:34:14.070Z,101977.91
2022-09-21T00:36:42.803Z,101975.97
2022-09-21T00:39:11.359Z,101985.28
2022-09-21T00:41:39.944Z,101976.44
2022-09-21T00:44:31.279Z,101977.41
2022-09-21T00:47:05.786Z,101979.03
2022-09-21T00:49:36.062Z,101982.44
2022-09-21T00:52:08.119Z,101991.03
2022-09-21T00:54:42.145Z,101986.75
2022-09-21T00:57:11.391Z,101989.25
2022-09-21T00:59:43.828Z,101979.63
2022-09-21T01:02:12.700Z,101984.56
2022-09-21T01:04:41.370Z,101989.69
2022-09-21T01:07:13.035Z,101989.41
2022-09-21T01:09:43.667Z,101990.94
2022-09-21T01:12:25.131Z,101989.09
2022-09-21T01:15:12.926Z,101997.69
2022-09-21T01:17:49.987Z,101994.38
2022-09-21T01:20:36.630Z,101994.44
2022-09-21T01:23:35.711Z,101988.53
2022-09-21T01:26:17.188Z,101999.88
2022-09-21T01:29:08.642Z,101999.97
2022-09-21T01:31:41.495Z,102002.56
2022-09-21T01:34:17.026Z,101995.59
2022-09-21T01:36:49.475Z,102002.56
2022-09-21T01:39:20.779Z,102001.66
2022-09-21T01:41:52.043Z,102006.84
2022-09-21T01:44:26.085Z,102004.25
2022-09-21T01:46:55.734Z,102007.75
2022-09-21T01:49:28.628Z,102007.56
2022-09-21T01:52:01.742Z,102010.84
2022-09-21T01:54:35.423Z,102009.75
2022-09-21T01:57:12.379Z,102012.09
2022-09-21T01:59:50.989Z,102008.66
2022-09-21T02:02:25.167Z,102007.78
2022-09-21T02:04:53.939Z,102007.63
2022-09-21T02:07:22.783Z,102011.13
2022-09-21T02:09:51.307Z,102010.22
2022-09-21T02:12:19.798Z,102011.75
2022-09-21T02:14:51.411Z,102013.19
2022-09-21T02:17:35.703Z,102011.34
2022-09-21T02:20:15.147Z,102016.63
2022-09-21T02:22:54.927Z,102008.56
2022-09-21T02:25:34.121Z,102003.22
2022-09-21T02:28:09.600Z,102003.22
2022-09-21T02:30:42.177Z,102009.47
2022-09-21T02:33:17.751Z,102002.50
2022-09-21T02:35:52.149Z,102015.38
2022-09-21T02:38:26.575Z,102009.28
2022-09-21T02:41:00.103Z,102009.28
2022-09-21T02:43:35.175Z,102017.53
2022-09-21T02:46:12.807Z,102015.91
2022-09-21T02:48:47.178Z,102012.53
2022-09-21T02:51:18.902Z,102020.13
2022-09-21T02:53:49.430Z,102017.41
2022-09-21T02:56:18.246Z,102020.44
2022-09-21T02:58:51.482Z,102019.38
2022-09-21T03:01:22.971Z,102025.47
2022-09-21T03:03:51.970Z,102027.97
2022-09-21T03:06:20.670Z,102035.84
2022-09-21T03:08:49.287Z,102033.31
2022-09-21T03:11:18.182Z,102034.22
2022-09-21T03:13:47.167Z,102033.41
2022-09-21T03:16:16.513Z,102030.81
2022-09-21T03:18:46.457Z,102042.22
2022-09-21T03:21:14.978Z,102041.50
2022-09-21T03:23:43.454Z,102043.38
2022-09-21T03:26:11.938Z,102043.22
2022-09-21T03:28:40.908Z,102041.50
2022-09-21T03:31:09.813Z,102039.72
2022-09-21T03:33:38.334Z,102043.13
2022-09-21T03:36:09.194Z,102040.47
2022-09-21T03:38:37.816Z,102041.28
2022-09-21T03:41:07.465Z,102043.88
2022-09-21T03:43:35.982Z,102043.78
2022-09-21T03:46:04.517Z,102042.81
2022-09-21T03:48:33.776Z,102040.13
2022-09-21T03:51:02.274Z,102041.75
2022-09-21T03:53:32.178Z,102040.03
2022-09-21T03:56:00.822Z,102046.22
2022-09-21T03:58:29.308Z,102044.41
2022-09-21T04:01:02.786Z,102052.13
2022-09-21T04:03:31.669Z,102049.09
2022-09-21T04:06:00.169Z,102055.09
2022-09-21T04:08:28.679Z,102047.13
2022-09-21T04:10:58.683Z,102059.28
2022-09-21T04:13:27.273Z,102055.84
2022-09-21T04:15:55.794Z,102057.84
2022-09-21T04:18:24.343Z,102045.84
2022-09-21T04:20:52.878Z,102054.44
2022-09-21T04:23:23.026Z,102056.94
2022-09-21T04:25:52.435Z,102049.25
2022-09-21T04:28:22.770Z,102057.84
2022-09-21T04:30:54.372Z,102055.25
2022-09-21T04:33:23.967Z,102056.94
2022-09-21T04:35:56.025Z,102054.28
2022-09-21T04:38:24.665Z,102052.31
2022-09-21T04:40:58.249Z,102047.94
2022-09-21T04:43:28.178Z,102050.53
2022-09-21T04:45:56.701Z,102050.53
2022-09-21T04:48:25.316Z,102049.63
2022-09-21T04:50:53.877Z,102050.53
2022-09-21T04:53:22.362Z,102055.84
2022-09-21T04:55:51.187Z,102055.00
2022-09-21T04:58:24.270Z,102061.34
2022-09-21T05:00:55.363Z,102058.75
2022-09-21T05:03:25.445Z,102066.41
2022-09-21T05:05:55.288Z,102068.19
2022-09-21T05:08:38.835Z,102066.41
2022-09-21T05:11:12.799Z,102066.22
2022-09-21T05:13:41.767Z,102076.59
2022-09-21T05:16:12.133Z,102078.31
2022-09-21T05:18:40.724Z,102080.00
2022-09-21T05:21:09.219Z,102083.59
2022-09-21T05:23:37.762Z,102085.19
2022-09-21T05:26:07.158Z,102093.78
2022-09-21T05:28:39.822Z,102099.88
2022-09-21T05:31:28.442Z,102097.34
2022-09-21T05:34:03.781Z,102097.53
2022-09-21T05:36:46.854Z,102102.88
2022-09-21T05:39:15.930Z,102101.28
2022-09-21T05:41:45.007Z,102104.84
2022-09-21T05:44:15.499Z,102106.63
2022-09-21T05:46:55.925Z,102100.00
2022-09-21T05:49:34.423Z,102105.13
2022-09-21T05:52:10.885Z,102112.19
2022-09-21T05:54:51.943Z,102110.38
2022-09-21T05:57:30.896Z,102108.78
2022-09-21T06:00:10.923Z,102113.34
2022-09-21T06:03:23.113Z,102111.81
2022-09-21T06:05:52.155Z,102105.19
2022-09-21T06:08:20.706Z,102107.06
2022-09-21T06:10:49.278Z,102106.41
2022-09-21T06:13:17.899Z,102104.81
2022-09-21T06:15:46.800Z,102106.78
2022-09-21T06:18:18.202Z,102112.13
2022-09-21T06:20:47.078Z,102110.69
2022-09-21T06:23:16.684Z,102117.25
2022-09-21T06:25:45.293Z,102105.41
2022-09-21T06:28:14.198Z,102108.34
2022-09-21T06:30:45.080Z,102114.69
2022-09-21T06:33:14.470Z,102119.38
2022-09-21T06:35:44.350Z,102121.50
2022-09-21T06:38:12.910Z,102121.81
2022-09-21T06:40:41.440Z,102116.91
2022-09-21T06:43:10.060Z,102129.31
2022-09-21T06:45:38.772Z,102130.53
2022-09-21T06:48:07.299Z,102118.78
2022-09-21T06:50:36.409Z,102130.31
2022-09-21T06:53:06.321Z,102135.00
2022-09-21T06:55:34.884Z,102130.28
2022-09-21T06:58:03.673Z,102133.22
2022-09-21T07:00:32.584Z,102136.78
2022-09-21T07:03:01.285Z,102135.16
2022-09-21T07:05:29.837Z,102134.44
2022-09-21T07:07:59.332Z,102145.88
2022-09-21T07:10:29.367Z,102133.19
2022-09-21T07:13:03.342Z,102141.16
2022-09-21T07:15:31.927Z,102144.88
2022-09-21T07:18:07.717Z,102145.19
2022-09-21T07:20:36.421Z,102149.66
2022-09-21T07:23:11.639Z,102140.31
2022-09-21T07:25:41.712Z,102153.22
2022-09-21T07:28:10.276Z,102149.66
2022-09-21T07:30:39.184Z,102148.94
2022-09-21T07:33:08.257Z,102143.72
2022-09-21T07:35:36.845Z,102143.88
2022-09-21T07:38:07.795Z,102143.13
2022-09-21T07:40:36.890Z,102141.66
2022-09-21T07:43:07.111Z,102145.63
2022-09-21T07:45:35.806Z,102144.06
2022-09-21T07:48:05.027Z,102144.84
2022-09-21T07:50:34.810Z,102147.34
2022-09-21T07:53:04.132Z,102146.34
2022-09-21T07:55:32.703Z,102138.72
2022-09-21T07:58:18.646Z,102144.50
2022-09-21T08:00:48.691Z,102148.44
2022-09-21T08:03:17.385Z,102149.63
2022-09-21T08:05:46.133Z,102155.69
2022-09-21T08:08:15.595Z,102155.69
2022-09-21T08:10:44.197Z,102156.81
2022-09-21T08:13:12.774Z,102150.03
2022-09-21T08:15:49.859Z,102152.72
2022-09-21T08:18:20.193Z,102159.22
2022-09-21T08:20:55.150Z,102158.50
2022-09-21T08:23:23.804Z,102161.34
2022-09-21T08:25:52.372Z,102158.19
2022-09-21T08:28:20.903Z,102162.06
2022-09-21T08:30:49.437Z,102161.38
2022-09-21T08:33:18.588Z,102166.81
2022-09-21T08:35:54.771Z,102167.09
2022-09-21T08:38:23.877Z,102161.31
2022-09-21T08:40:53.858Z,102168.06
2022-09-21T08:43:33.220Z,102168.22
2022-09-21T08:46:05.085Z,102166.56
2022-09-21T08:48:40.219Z,102165.16
2022-09-21T08:51:16.019Z,102164.75
2022-09-21T08:53:47.063Z,102166.75
2022-09-21T08:56:17.316Z,102162.75
2022-09-21T08:58:46.330Z,102167.34
2022-09-21T09:01:39.688Z,102172.75
2022-09-21T09:04:40.879Z,102167.94
2022-09-21T09:07:27.449Z,102173.63
2022-09-21T09:10:21.611Z,102167.94
2022-09-21T09:13:01.959Z,102166.84
2022-09-21T09:15:48.890Z,102169.13
2022-09-21T09:18:27.696Z,102170.22
2022-09-21T09:20:59.349Z,102165.94
2022-09-21T09:23:33.839Z,102170.81
2022-09-21T09:26:09.019Z,102166.41
2022-09-21T09:28:42.960Z,102162.34
2022-09-21T09:31:17.801Z,102164.31
2022-09-21T09:33:53.329Z,102172.47
2022-09-21T09:36:46.662Z,102170.84
2022-09-21T09:39:15.836Z,102177.84
2022-09-21T09:42:16.618Z,102166.78
2022-09-21T09:45:24.544Z,102169.69
2022-09-21T09:48:07.883Z,102175.22
2022-09-21T09:50:38.964Z,102175.56
2022-09-21T09:53:12.305Z,102167.47
2022-09-21T09:55:44.811Z,102171.19
2022-09-21T09:58:20.580Z,102169.66
2022-09-21T10:00:53.311Z,102176.91
2022-09-21T10:03:24.521Z,102172.09
2022-09-21T10:05:53.108Z,102174.97
2022-09-21T10:08:30.164Z,102170.09
2022-09-21T10:11:00.137Z,102165.91
2022-09-21T10:13:31.646Z,102167.03
2022-09-21T10:16:02.040Z,102172.44
2022-09-21T10:18:38.540Z,102165.78
2022-09-21T10:21:09.710Z,102164.84
2022-09-21T10:23:39.520Z,102160.91
2022-09-21T10:26:12.190Z,102157.91
2022-09-21T10:28:57.022Z,102156.47
2022-09-21T10:31:27.863Z,102153.09
2022-09-21T10:34:08.114Z,102158.19
2022-09-21T10:36:38.883Z,102154.22
2022-09-21T10:39:21.472Z,102159.59
2022-09-21T10:41:54.736Z,102151.50
2022-09-21T10:44:27.275Z,102145.13
2022-09-21T10:49:31.622Z,102146.81
2022-09-21T10:52:00.711Z,102137.19
2022-09-21T10:54:32.939Z,102129.78
2022-09-21T10:57:08.771Z,102139.00
2022-09-21T10:59:38.292Z,102127.84
2022-09-21T11:02:29.736Z,102128.47
2022-09-21T11:05:04.158Z,102120.16
2022-09-21T11:07:41.379Z,102116.66
2022-09-21T11:10:19.829Z,102118.91
2022-09-21T11:13:00.130Z,102125.28
2022-09-21T11:15:44.377Z,102119.38
2022-09-21T11:18:21.536Z,102124.19
2022-09-21T11:20:56.245Z,102118.38
2022-09-21T11:23:40.321Z,102122.38
2022-09-21T11:26:15.354Z,102115.66
2022-09-21T11:28:52.318Z,102118.75
2022-09-21T11:31:36.892Z,102120.56
2022-09-21T11:34:13.709Z,102110.31
2022-09-21T11:36:54.215Z,102119.56
2022-09-21T11:39:32.927Z,102117.81
2022-09-21T11:42:16.569Z,102116.16
2022-09-21T11:44:55.906Z,102121.28
2022-09-21T11:47:48.787Z,102128.78
2022-09-21T11:50:32.101Z,102120.69
2022-09-21T11:53:16.324Z,102116.91
2022-09-21T11:56:04.337Z,102118.81
2022-09-21T11:58:40.845Z,102107.38
2022-09-21T12:01:25.067Z,102116.13
2022-09-21T12:04:09.257Z,102107.00
2022-09-21T12:06:54.029Z,102103.94
2022-09-21T12:10:00.682Z,102102.16
2022-09-21T12:12:34.528Z,102098.91
2022-09-21T12:15:11.338Z,102099.41
2022-09-21T12:17:50.816Z,102104.19
2022-09-21T12:20:27.783Z,102103.13
2022-09-21T12:23:02.171Z,102104.25
2022-09-21T12:25:36.329Z,102101.13
2022-09-21T12:28:09.898Z,102097.31
2022-09-21T12:30:42.176Z,102102.47
2022-09-21T12:33:19.323Z,102096.34
2022-09-21T12:38:24.397Z,102093.00
2022-09-21T12:40:58.098Z,102090.44
2022-09-21T12:43:36.087Z,102086.84
2022-09-21T12:46:09.247Z,102082.38
2022-09-21T12:48:42.346Z,102090.78
2022-09-21T12:51:16.115Z,102079.69
2022-09-21T12:53:50.768Z,102085.44
2022-09-21T12:56:30.934Z,102089.91
2022-09-21T12:59:12.126Z,102080.13
2022-09-21T13:01:47.824Z,102074.53
2022-09-21T13:04:38.555Z,102067.00
2022-09-21T13:07:34.867Z,102074.09
2022-09-21T13:10:18.607Z,102075.50
2022-09-21T13:12:53.133Z,102071.84
2022-09-21T13:15:27.186Z,102071.13
2022-09-21T13:18:01.455Z,102076.84
2022-09-21T13:20:39.938Z,102074.63
2022-09-21T13:23:17.838Z,102070.78
2022-09-21T13:25:50.329Z,102077.06
2022-09-21T13:28:24.066Z,102072.78
2022-09-21T13:31:42.401Z,102074.78
2022-09-21T13:34:33.105Z,102071.91
2022-09-21T13:37:44.503Z,102072.84
2022-09-21T13:40:50.625Z,102066.63
2022-09-21T13:43:23.683Z,102070.28
2022-09-21T13:46:01.613Z,102074.03
2022-09-21T13:48:30.855Z,102067.06
2022-09-21T13:51:09.319Z,102070.53
2022-09-21T13:53:42.442Z,102060.81
2022-09-21T13:56:20.391Z,102068.00
2022-09-21T13:58:53.342Z,102065.13
2022-09-21T14:01:45.722Z,102061.34
2022-09-21T14:04:22.118Z,102067.50
2022-09-21T14:06:53.425Z,102062.38
2022-09-21T14:09:28.858Z,102064.38
2022-09-21T14:12:01.819Z,102057.66
2022-09-21T14:14:37.289Z,102055.94
2022-09-21T14:17:07.186Z,102043.09
2022-09-21T14:20:30.165Z,102049.16
2022-09-21T14:23:32.516Z,102039.84
2022-09-21T14:26:03.742Z,102040.81
2022-09-21T14:28:40.035Z,102031.06
2022-09-21T14:31:18.218Z,102038.13
2022-09-21T14:34:23.996Z,102037.91
2022-09-21T14:36:59.874Z,102034.97
2022-09-21T14:39:33.592Z,102032.00
2022-09-21T14:42:16.128Z,102028.94
2022-09-21T14:44:49.362Z,102019.06
2022-09-21T14:47:39.091Z,102024.91
2022-09-21T14:50:21.578Z,102024.66
2022-09-21T14:56:51.734Z,102023.06
2022-09-21T14:59:35.828Z,102026.19
2022-09-21T15:02:18.089Z,102026.75
2022-09-21T15:05:04.340Z,102035.41
2022-09-21T15:08:04.892Z,102029.53
2022-09-21T15:10:56.197Z,102030.56
2022-09-21T15:14:14.759Z,102025.06
2022-09-21T15:16:47.227Z,102031.91
2022-09-21T15:19:23.633Z,102020.47
2022-09-21T15:21:53.796Z,102022.00
2022-09-21T15:24:26.704Z,102018.34
2022-09-21T15:27:04.051Z,102016.63
2022-09-21T15:29:34.232Z,102018.44
2022-09-21T15:32:06.432Z,102014.09
2022-09-21T15:34:35.118Z,102014.00
2022-09-21T15:37:08.808Z,102015.72
2022-09-21T15:39:37.555Z,102009.47
2022-09-21T15:42:23.102Z,102014.50
2022-09-21T15:45:06.300Z,102017.22
2022-09-21T15:47:36.449Z,102010.94
2022-09-21T15:50:05.667Z,102017.31
2022-09-21T15:52:39.040Z,102011.97
2022-09-21T15:55:13.283Z,102018.81
2022-09-21T15:57:46.927Z,102015.44
2022-09-21T16:00:24.510Z,102016.44
2022-09-21T16:03:05.863Z,102015.38
2022-09-21T16:05:44.768Z,102017.69
2022-09-21T16:08:22.672Z,102015.00
2022-09-21T16:10:51.584Z,102020.94
2022-09-21T16:13:39.112Z,102023.31
2022-09-21T16:16:09.649Z,102027.44
2022-09-21T16:18:46.803Z,102031.78
2022-09-21T16:21:21.066Z,102031.69
2022-09-21T16:23:49.990Z,102031.69
2022-09-21T16:26:24.768Z,102034.13
2022-09-21T16:29:15.496Z,102027.25
2022-09-21T16:31:49.648Z,102031.59
2022-09-21T16:34:35.359Z,102035.91
2022-09-21T16:37:23.007Z,102033.97
2022-09-21T16:39:51.675Z,102034.50
2022-09-21T16:42:20.893Z,102036.00
2022-09-21T16:44:53.377Z,102036.53
2022-09-21T16:47:25.483Z,102037.97
2022-09-21T16:50:08.063Z,102041.25
2022-09-21T16:52:36.563Z,102034.34
2022-09-21T16:55:06.294Z,102035.94
2022-09-21T16:57:34.949Z,102032.25
2022-09-21T17:00:07.485Z,102038.13
2022-09-21T17:02:36.248Z,102031.06
2022-09-21T17:05:06.798Z,102043.13
2022-09-21T17:07:35.341Z,102036.75
2022-09-21T17:10:14.115Z,102039.19
2022-09-21T17:12:43.066Z,102039.88
2022-09-21T17:15:14.419Z,102037.97
2022-09-21T17:17:43.920Z,102047.31
2022-09-21T17:20:20.150Z,102049.84
2022-09-21T17:22:49.130Z,102048.88
2022-09-21T17:25:17.975Z,102049.47
2022-09-21T17:27:46.637Z,102053.63
2022-09-21T17:30:16.315Z,102058.66
2022-09-21T17:32:44.883Z,102048.75
2022-09-21T17:35:31.112Z,102053.97
2022-09-21T17:37:59.771Z,102054.69
2022-09-21T17:40:29.927Z,102057.16
2022-09-21T17:43:10.651Z,102050.66
2022-09-21T17:45:46.950Z,102052.97
2022-09-21T17:48:20.903Z,102052.75
2022-09-21T17:50:52.327Z,102064.66
2022-09-21T17:53:37.296Z,102058.28
2022-09-21T17:56:21.661Z,102060.63
2022-09-21T17:58:58.035Z,102066.50
2022-09-21T18:01:33.934Z,102066.34
2022-09-21T18:04:03.531Z,102072.28
2022-09-21T18:06:34.752Z,102066.06
2022-09-21T18:09:04.472Z,102065.00
2022-09-21T18:12:01.962Z,102070.03
2022-09-21T18:14:41.190Z,102068.97
2022-09-21T18:17:26.279Z,102074.88
2022-09-21T18:20:14.174Z,102072.97
2022-09-21T18:22:53.060Z,102074.53
2022-09-21T18:25:28.694Z,102080.44
2022-09-21T18:27:59.848Z,102081.13
2022-09-21T18:30:29.248Z,102084.38
2022-09-21T18:33:14.851Z,102085.13
2022-09-21T18:36:01.538Z,102081.44
2022-09-21T18:38:38.915Z,102077.00
2022-09-21T18:41:23.828Z,102088.06
2022-09-21T18:44:13.248Z,102084.38
2022-09-21T18:46:54.014Z,102080.84
2022-09-21T18:49:41.931Z,102081.53
2022-09-21T18:52:20.073Z,102089.22
2022-09-21T18:54:50.548Z,102079.53
2022-09-21T18:57:19.552Z,102084.59
2022-09-21T18:59:48.909Z,102079.13
2022-09-21T19:02:20.386Z,102093.03
2022-09-21T19:04:50.043Z,102084.94
2022-09-21T19:07:29.066Z,102091.78
2022-09-21T19:10:08.168Z,102089.84
2022-09-21T19:12:50.315Z,102088.84
2022-09-21T19:15:42.132Z,102092.22
2022-09-21T19:18:21.146Z,102096.41
2022-09-21T19:21:02.431Z,102091.97
2022-09-21T19:23:42.229Z,102094.50
2022-09-21T19:26:17.542Z,102095.25
2022-09-21T19:29:07.363Z,102098.59
2022-09-21T19:31:36.539Z,102094.13
2022-09-21T19:34:14.627Z,102100.91
2022-09-21T19:36:43.498Z,102091.25
2022-09-21T19:39:12.767Z,102094.50
2022-09-21T19:41:54.655Z,102096.09
2022-09-21T19:44:45.233Z,102097.69
2022-09-21T19:47:24.168Z,102100.97
2022-09-21T19:49:55.043Z,102099.88
2022-09-21T19:52:30.419Z,102100.56
2022-09-21T19:55:17.198Z,102110.88
2022-09-21T19:58:05.581Z,102103.72
2022-09-21T20:00:34.539Z,102105.34
2022-09-21T20:03:08.088Z,102106.13
2022-09-21T20:05:47.812Z,102106.75
2022-09-21T20:08:22.523Z,102106.59
2022-09-21T20:11:02.903Z,102116.75
2022-09-21T20:13:59.881Z,102114.78
2022-09-21T20:16:37.476Z,102104.13
2022-09-21T20:19:13.884Z,102106.63
2022-09-21T20:21:44.573Z,102110.84
2022-09-21T20:24:21.291Z,102103.69
2022-09-21T20:26:51.973Z,102108.72
2022-09-21T20:29:23.245Z,102106.84
2022-09-21T20:31:54.052Z,102110.28
2022-09-21T20:34:22.650Z,102117.16
2022-09-21T20:36:51.288Z,102112.75
2022-09-21T20:39:19.904Z,102113.56
2022-09-21T20:41:48.942Z,102110.09
2022-09-21T20:44:17.547Z,102109.25
2022-09-21T20:46:47.477Z,102113.56
2022-09-21T20:49:16.172Z,102109.25
2022-09-21T20:51:46.055Z,102108.44
2022-09-21T20:54:14.593Z,102111.03
2022-09-21T20:56:43.410Z,102105.75
2022-09-21T20:59:14.733Z,102113.56
2022-09-21T21:01:43.366Z,102111.78
2022-09-21T21:04:14.216Z,102114.41
2022-09-21T21:06:43.137Z,102110.00
2022-09-21T21:09:11.634Z,102117.81
2022-09-21T21:11:40.375Z,102112.53
2022-09-21T21:14:08.983Z,102117.59
2022-09-21T21:16:37.667Z,102111.50
2022-09-21T21:19:06.184Z,102107.91
2022-09-21T21:21:36.470Z,102109.56
2022-09-21T21:24:23.011Z,102116.56
2022-09-21T21:27:02.650Z,102125.19
2022-09-21T21:29:32.242Z,102118.22
2022-09-21T21:32:01.266Z,102114.78
2022-09-21T21:34:29.854Z,102118.28
2022-09-21T21:37:00.077Z,102113.09
2022-09-21T21:39:28.677Z,102116.56
2022-09-21T21:41:57.214Z,102113.09
2022-09-21T21:44:25.719Z,102117.47
2022-09-21T21:46:54.819Z,102107.91
2022-09-21T21:49:23.381Z,102107.91
2022-09-21T21:51:52.359Z,102107.91
2022-09-21T21:54:24.518Z,102109.72
2022-09-21T21:56:54.048Z,102109.72
2022-09-21T21:59:22.788Z,102110.53
2022-09-21T22:01:51.351Z,102107.91
2022-09-21T22:04:22.471Z,102097.50
2022-09-21T22:06:54.223Z,102106.16
2022-09-21T22:09:24.318Z,102104.53
2022-09-21T22:11:53.087Z,102096.63
2022-09-21T22:14:23.092Z,102100.94
2022-09-21T22:16:52.968Z,102097.38
2022-09-21T22:19:21.543Z,102099.16
2022-09-21T22:21:54.023Z,102100.94
2022-09-21T22:24:25.210Z,102094.84
2022-09-21T22:26:53.828Z,102095.72
2022-09-21T22:29:22.332Z,102094.78
2022-09-21T22:31:51.633Z,102098.22
2022-09-21T22:34:20.940Z,102102.44
2022-09-21T22:36:50.278Z,102102.44
2022-09-21T22:39:19.149Z,102098.88
2022-09-21T22:41:49.018Z,102102.31
2022-09-21T22:44:17.658Z,102102.31
2022-09-21T22:46:46.187Z,102096.19
2022-09-21T22:49:14.682Z,102098.72
2022-09-21T22:51:43.209Z,102109.22
2022-09-21T22:54:11.772Z,102116.16
2022-09-21T22:56:40.359Z,102112.56
2022-09-21T22:59:10.347Z,102107.34
2022-09-21T23:01:41.207Z,102107.28
2022-09-21T23:04:12.419Z,102110.63
2022-09-21T23:06:42.416Z,102114.06
2022-09-21T23:09:14.480Z,102107.91
2022-09-21T23:11:47.206Z,102105.13
2022-09-21T23:14:17.840Z,102107.66
2022-09-21T23:16:47.113Z,102105.75
2022-09-21T23:19:16.553Z,102109.19
2022-09-21T23:21:46.814Z,102107.34
2022-09-21T23:24:21.186Z,102109.88
2022-09-21T23:26:51.567Z,102098.50
2022-09-21T23:29:21.786Z,102104.53
2022-09-21T23:31:50.434Z,102099.31
2022-09-21T23:34:19.073Z,102106.19
2022-09-21T23:36:47.719Z,102101.72
2022-09-21T23:39:17.027Z,102096.50
2022-09-21T23:41:46.022Z,102094.69
2022-09-21T23:44:14.651Z,102099.03
2022-09-21T23:46:44.604Z,102096.25
2022-09-21T23:49:13.177Z,102096.19
2022-09-21T23:51:42.539Z,102093.53
2022-09-21T23:54:11.120Z,102097.75
2022-09-21T23:56:39.631Z,102094.19
2022-09-21T23:59:08.738Z,102096.78
